Summerton, South Carolina
Current Conditions -  °F | °C
As of 2:15 PM on Thursday 30 Oct 2014 (Local Time) from KMNI Reporting Station
Scattered Clouds Scattered Clouds  
Wind Chill: 70°   Ceiling: Unl
Heat Index: 70°   Visibility: 10mi
Dew Point: 54°   Wind: 3mph
Humidity: 56%   Direction: 40°NE
Pressure: 29.97"   Gusts: NA
Location:  33.61°N, 80.35°W
Report Text: KMNI 301815Z AUTO 04003KT 10SM SCT033 21/12 A2997 RMK AO2
Loading
Personal Weather Stations






























Interactive Weather Map
Tropical Storm Tracking
New forecast layout! Learn more

10-Day Weather Forecast

Advertisements
Track Severe Weather on mobile